sensor_id;sensor_type;location;lat;lon;timestamp;temperature;humidity
32502;DHT22;18952;52.516;13.460;2022-12-26T00:01:28;8.00;99.90
32502;DHT22;18952;52.516;13.460;2022-12-26T00:03:56;8.00;99.90
32502;DHT22;18952;52.516;13.460;2022-12-26T00:06:27;8.00;99.90
32502;DHT22;18952;52.516;13.460;2022-12-26T00:08:55;8.00;99.90
32502;DHT22;18952;52.516;13.460;2022-12-26T00:11:23;8.00;99.90
32502;DHT22;18952;52.516;13.460;2022-12-26T00:14:02;8.00;99.90
32502;DHT22;18952;52.516;13.460;2022-12-26T00:16:30;8.00;99.90
32502;DHT22;18952;52.516;13.460;2022-12-26T00:18:57;8.00;99.90
32502;DHT22;18952;52.516;13.460;2022-12-26T00:21:24;8.10;99.90
32502;DHT22;18952;52.516;13.460;2022-12-26T00:23:52;8.10;99.90
32502;DHT22;18952;52.516;13.460;2022-12-26T00:26:21;8.10;99.90
32502;DHT22;18952;52.516;13.460;2022-12-26T00:28:48;8.20;99.90
32502;DHT22;18952;52.516;13.460;2022-12-26T00:31:17;8.10;99.90
32502;DHT22;18952;52.516;13.460;2022-12-26T00:33:45;8.10;99.90
32502;DHT22;18952;52.516;13.460;2022-12-26T00:36:15;8.10;99.90
32502;DHT22;18952;52.516;13.460;2022-12-26T00:38:44;8.10;99.90
32502;DHT22;18952;52.516;13.460;2022-12-26T00:41:11;8.10;99.90
32502;DHT22;18952;52.516;13.460;2022-12-26T00:43:38;8.10;99.90
32502;DHT22;18952;52.516;13.460;2022-12-26T00:46:06;8.20;99.90
32502;DHT22;18952;52.516;13.460;2022-12-26T00:48:33;8.20;99.90
32502;DHT22;18952;52.516;13.460;2022-12-26T00:51:00;8.20;99.90
32502;DHT22;18952;52.516;13.460;2022-12-26T00:53:27;8.20;99.90
32502;DHT22;18952;52.516;13.460;2022-12-26T00:55:54;8.20;99.90
32502;DHT22;18952;52.516;13.460;2022-12-26T00:58:21;8.20;99.90
32502;DHT22;18952;52.516;13.460;2022-12-26T01:00:48;8.20;99.90
32502;DHT22;18952;52.516;13.460;2022-12-26T01:03:15;8.20;99.90
32502;DHT22;18952;52.516;13.460;2022-12-26T01:05:45;8.20;99.90
32502;DHT22;18952;52.516;13.460;2022-12-26T01:08:12;8.20;99.90
32502;DHT22;18952;52.516;13.460;2022-12-26T01:10:49;8.20;99.90
32502;DHT22;18952;52.516;13.460;2022-12-26T01:13:16;8.30;99.90
32502;DHT22;18952;52.516;13.460;2022-12-26T01:15:50;8.30;99.90
32502;DHT22;18952;52.516;13.460;2022-12-26T01:18:18;8.30;99.90
32502;DHT22;18952;52.516;13.460;2022-12-26T01:20:45;8.30;99.90
32502;DHT22;18952;52.516;13.460;2022-12-26T01:23:12;8.30;99.90
32502;DHT22;18952;52.516;13.460;2022-12-26T01:25:39;8.30;99.90
32502;DHT22;18952;52.516;13.460;2022-12-26T01:28:26;8.40;99.90
32502;DHT22;18952;52.516;13.460;2022-12-26T01:30:52;8.30;99.90
32502;DHT22;18952;52.516;13.460;2022-12-26T01:33:19;8.30;99.90
32502;DHT22;18952;52.516;13.460;2022-12-26T01:35:52;8.40;99.90
32502;DHT22;18952;52.516;13.460;2022-12-26T01:38:19;8.40;99.90
32502;DHT22;18952;52.516;13.460;2022-12-26T01:40:47;8.40;99.90
32502;DHT22;18952;52.516;13.460;2022-12-26T01:43:15;8.40;99.90
32502;DHT22;18952;52.516;13.460;2022-12-26T01:45:45;8.50;99.90
32502;DHT22;18952;52.516;13.460;2022-12-26T01:48:20;8.50;99.90
32502;DHT22;18952;52.516;13.460;2022-12-26T01:53:37;8.50;99.90
32502;DHT22;18952;52.516;13.460;2022-12-26T01:56:12;8.60;99.90
32502;DHT22;18952;52.516;13.460;2022-12-26T01:58:45;8.50;99.90
32502;DHT22;18952;52.516;13.460;2022-12-26T02:01:13;8.50;99.90
32502;DHT22;18952;52.516;13.460;2022-12-26T02:03:42;8.40;99.90
32502;DHT22;18952;52.516;13.460;2022-12-26T02:06:12;8.50;99.90
32502;DHT22;18952;52.516;13.460;2022-12-26T02:08:41;8.50;99.90
32502;DHT22;18952;52.516;13.460;2022-12-26T02:11:21;8.40;99.90
32502;DHT22;18952;52.516;13.460;2022-12-26T02:13:50;8.50;99.90
32502;DHT22;18952;52.516;13.460;2022-12-26T02:16:18;8.40;99.90
32502;DHT22;18952;52.516;13.460;2022-12-26T02:18:45;8.40;99.90
32502;DHT22;18952;52.516;13.460;2022-12-26T02:41:08;8.60;99.90
32502;DHT22;18952;52.516;13.460;2022-12-26T02:43:53;8.60;99.90
32502;DHT22;18952;52.516;13.460;2022-12-26T02:46:41;8.60;99.90
32502;DHT22;18952;52.516;13.460;2022-12-26T02:49:23;8.60;99.90
32502;DHT22;18952;52.516;13.460;2022-12-26T02:52:04;8.70;99.90
32502;DHT22;18952;52.516;13.460;2022-12-26T02:54:44;8.60;99.90
32502;DHT22;18952;52.516;13.460;2022-12-26T02:57:17;8.70;99.90
32502;DHT22;18952;52.516;13.460;2022-12-26T02:59:55;8.70;99.90
32502;DHT22;18952;52.516;13.460;2022-12-26T03:02:35;8.70;99.90
32502;DHT22;18952;52.516;13.460;2022-12-26T03:05:04;8.70;99.90
32502;DHT22;18952;52.516;13.460;2022-12-26T03:07:34;8.70;99.90
32502;DHT22;18952;52.516;13.460;2022-12-26T03:10:06;8.70;99.90
32502;DHT22;18952;52.516;13.460;2022-12-26T03:12:45;8.70;99.90
32502;DHT22;18952;52.516;13.460;2022-12-26T03:15:15;8.70;99.90
32502;DHT22;18952;52.516;13.460;2022-12-26T03:17:47;8.70;99.90
32502;DHT22;18952;52.516;13.460;2022-12-26T03:20:28;8.70;99.90
32502;DHT22;18952;52.516;13.460;2022-12-26T03:23:05;8.70;99.90
32502;DHT22;18952;52.516;13.460;2022-12-26T03:25:52;8.70;99.90
32502;DHT22;18952;52.516;13.460;2022-12-26T03:28:21;8.70;99.90
32502;DHT22;18952;52.516;13.460;2022-12-26T03:30:48;8.80;99.90
32502;DHT22;18952;52.516;13.460;2022-12-26T03:33:17;8.80;99.90
32502;DHT22;18952;52.516;13.460;2022-12-26T03:35:44;8.80;99.90
32502;DHT22;18952;52.516;13.460;2022-12-26T03:38:13;8.80;99.90
32502;DHT22;18952;52.516;13.460;2022-12-26T03:40:52;8.80;99.90
32502;DHT22;18952;52.516;13.460;2022-12-26T03:46:31;8.80;99.90
32502;DHT22;18952;52.516;13.460;2022-12-26T03:49:10;8.80;99.90
32502;DHT22;18952;52.516;13.460;2022-12-26T03:57:18;8.90;99.90
32502;DHT22;18952;52.516;13.460;2022-12-26T04:00:00;8.90;99.90
32502;DHT22;18952;52.516;13.460;2022-12-26T04:02:28;8.90;99.90
32502;DHT22;18952;52.516;13.460;2022-12-26T04:04:58;8.90;99.90
32502;DHT22;18952;52.516;13.460;2022-12-26T04:07:31;8.90;99.90
32502;DHT22;18952;52.516;13.460;2022-12-26T04:10:10;8.90;99.90
32502;DHT22;18952;52.516;13.460;2022-12-26T04:12:39;9.00;99.90
32502;DHT22;18952;52.516;13.460;2022-12-26T04:15:37;8.90;99.90
32502;DHT22;18952;52.516;13.460;2022-12-26T04:18:12;8.90;99.90
32502;DHT22;18952;52.516;13.460;2022-12-26T04:21:30;8.90;99.90
32502;DHT22;18952;52.516;13.460;2022-12-26T04:23:50;9.00;99.90
32502;DHT22;18952;52.516;13.460;2022-12-26T04:26:33;9.00;99.90
32502;DHT22;18952;52.516;13.460;2022-12-26T04:29:02;9.00;99.90
32502;DHT22;18952;52.516;13.460;2022-12-26T04:34:19;8.90;99.90
32502;DHT22;18952;52.516;13.460;2022-12-26T04:36:59;8.90;99.90
32502;DHT22;18952;52.516;13.460;2022-12-26T04:39:30;8.80;99.90
32502;DHT22;18952;52.516;13.460;2022-12-26T04:41:59;8.90;99.90
32502;DHT22;18952;52.516;13.460;2022-12-26T04:44:27;8.80;99.90
32502;DHT22;18952;52.516;13.460;2022-12-26T04:46:55;8.90;99.90
32502;DHT22;18952;52.516;13.460;2022-12-26T04:49:22;8.90;99.90
32502;DHT22;18952;52.516;13.460;2022-12-26T04:51:49;8.90;99.90
32502;DHT22;18952;52.516;13.460;2022-12-26T04:54:16;8.90;99.90
32502;DHT22;18952;52.516;13.460;2022-12-26T04:56:43;8.90;99.90
32502;DHT22;18952;52.516;13.460;2022-12-26T04:59:10;8.90;99.90
32502;DHT22;18952;52.516;13.460;2022-12-26T05:01:37;8.90;99.90
32502;DHT22;18952;52.516;13.460;2022-12-26T05:04:04;9.00;99.90
32502;DHT22;18952;52.516;13.460;2022-12-26T05:06:30;9.00;99.90
32502;DHT22;18952;52.516;13.460;2022-12-26T05:08:57;9.00;99.90
32502;DHT22;18952;52.516;13.460;2022-12-26T05:11:24;9.00;99.90
32502;DHT22;18952;52.516;13.460;2022-12-26T05:13:52;9.10;99.90
32502;DHT22;18952;52.516;13.460;2022-12-26T05:16:19;9.00;99.90
32502;DHT22;18952;52.516;13.460;2022-12-26T05:18:46;9.10;99.90
32502;DHT22;18952;52.516;13.460;2022-12-26T05:21:14;9.10;99.90
32502;DHT22;18952;52.516;13.460;2022-12-26T05:23:43;9.10;99.90
32502;DHT22;18952;52.516;13.460;2022-12-26T05:26:17;9.10;99.90
32502;DHT22;18952;52.516;13.460;2022-12-26T05:28:52;9.10;99.90
32502;DHT22;18952;52.516;13.460;2022-12-26T05:31:20;9.10;99.90
32502;DHT22;18952;52.516;13.460;2022-12-26T05:33:46;9.10;99.90
32502;DHT22;18952;52.516;13.460;2022-12-26T05:36:14;9.10;99.90
32502;DHT22;18952;52.516;13.460;2022-12-26T05:38:41;9.10;99.90
32502;DHT22;18952;52.516;13.460;2022-12-26T05:41:08;9.10;99.90
32502;DHT22;18952;52.516;13.460;2022-12-26T05:43:35;9.10;99.90
32502;DHT22;18952;52.516;13.460;2022-12-26T05:46:02;9.10;99.90
32502;DHT22;18952;52.516;13.460;2022-12-26T05:48:28;9.10;99.90
32502;DHT22;18952;52.516;13.460;2022-12-26T05:50:59;9.10;99.90
32502;DHT22;18952;52.516;13.460;2022-12-26T05:53:27;9.10;99.90
32502;DHT22;18952;52.516;13.460;2022-12-26T05:55:55;9.10;99.90
32502;DHT22;18952;52.516;13.460;2022-12-26T05:58:27;9.10;99.90
32502;DHT22;18952;52.516;13.460;2022-12-26T06:03:35;9.20;99.90
32502;DHT22;18952;52.516;13.460;2022-12-26T06:06:03;9.20;99.90
32502;DHT22;18952;52.516;13.460;2022-12-26T06:08:30;9.20;99.90
32502;DHT22;18952;52.516;13.460;2022-12-26T06:10:57;9.20;99.90
32502;DHT22;18952;52.516;13.460;2022-12-26T06:13:24;9.20;99.90
32502;DHT22;18952;52.516;13.460;2022-12-26T06:15:51;9.20;99.90
32502;DHT22;18952;52.516;13.460;2022-12-26T06:18:17;9.30;99.90
32502;DHT22;18952;52.516;13.460;2022-12-26T06:20:44;9.30;99.90
32502;DHT22;18952;52.516;13.460;2022-12-26T06:23:11;9.30;99.90
32502;DHT22;18952;52.516;13.460;2022-12-26T06:25:38;9.30;99.90
32502;DHT22;18952;52.516;13.460;2022-12-26T06:28:04;9.30;99.90
32502;DHT22;18952;52.516;13.460;2022-12-26T06:30:31;9.20;99.90
32502;DHT22;18952;52.516;13.460;2022-12-26T06:32:58;9.20;99.90
32502;DHT22;18952;52.516;13.460;2022-12-26T06:35:25;9.20;99.90
32502;DHT22;18952;52.516;13.460;2022-12-26T06:37:51;9.20;99.90
32502;DHT22;18952;52.516;13.460;2022-12-26T06:40:18;9.30;99.90
32502;DHT22;18952;52.516;13.460;2022-12-26T06:42:45;9.30;99.90
32502;DHT22;18952;52.516;13.460;2022-12-26T06:45:12;9.30;99.90
32502;DHT22;18952;52.516;13.460;2022-12-26T06:47:38;9.30;99.90
32502;DHT22;18952;52.516;13.460;2022-12-26T06:50:05;9.30;99.90
32502;DHT22;18952;52.516;13.460;2022-12-26T06:52:32;9.30;99.90
32502;DHT22;18952;52.516;13.460;2022-12-26T06:54:59;9.30;99.90
32502;DHT22;18952;52.516;13.460;2022-12-26T06:57:26;9.30;99.90
32502;DHT22;18952;52.516;13.460;2022-12-26T06:59:52;9.30;99.90
32502;DHT22;18952;52.516;13.460;2022-12-26T07:02:20;9.40;99.90
32502;DHT22;18952;52.516;13.460;2022-12-26T07:04:46;9.40;99.90
32502;DHT22;18952;52.516;13.460;2022-12-26T07:07:13;9.40;99.90
32502;DHT22;18952;52.516;13.460;2022-12-26T07:09:40;9.40;99.90
32502;DHT22;18952;52.516;13.460;2022-12-26T07:12:06;9.40;99.90
32502;DHT22;18952;52.516;13.460;2022-12-26T07:14:33;9.40;99.90
32502;DHT22;18952;52.516;13.460;2022-12-26T07:17:00;9.30;99.90
32502;DHT22;18952;52.516;13.460;2022-12-26T07:19:27;9.30;99.90
32502;DHT22;18952;52.516;13.460;2022-12-26T07:21:54;9.30;99.90
32502;DHT22;18952;52.516;13.460;2022-12-26T07:24:21;9.30;99.90
32502;DHT22;18952;52.516;13.460;2022-12-26T07:26:48;9.30;99.90
32502;DHT22;18952;52.516;13.460;2022-12-26T07:29:15;9.30;99.90
32502;DHT22;18952;52.516;13.460;2022-12-26T07:31:42;9.30;99.90
32502;DHT22;18952;52.516;13.460;2022-12-26T07:34:09;9.30;99.90
32502;DHT22;18952;52.516;13.460;2022-12-26T07:36:36;9.30;99.90
32502;DHT22;18952;52.516;13.460;2022-12-26T07:39:03;9.30;99.90
32502;DHT22;18952;52.516;13.460;2022-12-26T07:41:29;9.30;99.90
32502;DHT22;18952;52.516;13.460;2022-12-26T07:43:57;9.30;99.90
32502;DHT22;18952;52.516;13.460;2022-12-26T07:46:23;9.30;99.90
32502;DHT22;18952;52.516;13.460;2022-12-26T07:48:50;9.30;99.90
32502;DHT22;18952;52.516;13.460;2022-12-26T07:51:17;9.30;99.90
32502;DHT22;18952;52.516;13.460;2022-12-26T07:53:43;9.30;99.90
32502;DHT22;18952;52.516;13.460;2022-12-26T07:56:10;9.30;99.90
32502;DHT22;18952;52.516;13.460;2022-12-26T07:58:37;9.20;99.90
32502;DHT22;18952;52.516;13.460;2022-12-26T08:01:04;9.30;99.90
32502;DHT22;18952;52.516;13.460;2022-12-26T08:03:31;9.30;99.90
32502;DHT22;18952;52.516;13.460;2022-12-26T08:05:58;9.30;99.90
32502;DHT22;18952;52.516;13.460;2022-12-26T08:08:26;9.30;99.90
32502;DHT22;18952;52.516;13.460;2022-12-26T08:11:07;9.30;99.90
32502;DHT22;18952;52.516;13.460;2022-12-26T08:13:34;9.30;99.90
32502;DHT22;18952;52.516;13.460;2022-12-26T08:16:05;9.30;99.90
32502;DHT22;18952;52.516;13.460;2022-12-26T08:18:33;9.30;99.90
32502;DHT22;18952;52.516;13.460;2022-12-26T08:21:01;9.30;99.90
32502;DHT22;18952;52.516;13.460;2022-12-26T08:23:28;9.30;99.90
32502;DHT22;18952;52.516;13.460;2022-12-26T08:25:54;9.30;99.90
32502;DHT22;18952;52.516;13.460;2022-12-26T08:28:22;9.40;99.90
32502;DHT22;18952;52.516;13.460;2022-12-26T08:30:49;9.40;99.90
32502;DHT22;18952;52.516;13.460;2022-12-26T08:33:15;9.30;99.90
32502;DHT22;18952;52.516;13.460;2022-12-26T08:35:42;9.30;99.90
32502;DHT22;18952;52.516;13.460;2022-12-26T08:38:09;9.30;99.90
32502;DHT22;18952;52.516;13.460;2022-12-26T08:40:36;9.30;99.90
32502;DHT22;18952;52.516;13.460;2022-12-26T08:43:11;9.40;99.90
32502;DHT22;18952;52.516;13.460;2022-12-26T08:46:09;9.30;99.90
32502;DHT22;18952;52.516;13.460;2022-12-26T08:48:38;9.40;99.90
32502;DHT22;18952;52.516;13.460;2022-12-26T08:51:08;9.40;99.90
32502;DHT22;18952;52.516;13.460;2022-12-26T08:53:35;9.40;99.90
32502;DHT22;18952;52.516;13.460;2022-12-26T08:56:05;9.40;99.90
32502;DHT22;18952;52.516;13.460;2022-12-26T08:58:32;9.40;99.90
32502;DHT22;18952;52.516;13.460;2022-12-26T09:01:14;9.50;99.90
32502;DHT22;18952;52.516;13.460;2022-12-26T09:03:42;9.50;99.90
32502;DHT22;18952;52.516;13.460;2022-12-26T09:06:11;9.50;99.90
32502;DHT22;18952;52.516;13.460;2022-12-26T09:08:39;9.50;99.90
32502;DHT22;18952;52.516;13.460;2022-12-26T09:11:15;9.50;99.90
32502;DHT22;18952;52.516;13.460;2022-12-26T09:13:43;9.50;99.90
32502;DHT22;18952;52.516;13.460;2022-12-26T09:16:15;9.50;99.90
32502;DHT22;18952;52.516;13.460;2022-12-26T09:18:44;9.50;99.90
32502;DHT22;18952;52.516;13.460;2022-12-26T09:21:13;9.50;99.90
32502;DHT22;18952;52.516;13.460;2022-12-26T09:23:40;9.50;99.90
32502;DHT22;18952;52.516;13.460;2022-12-26T09:26:16;9.50;99.90
32502;DHT22;18952;52.516;13.460;2022-12-26T09:28:43;9.60;99.90
32502;DHT22;18952;52.516;13.460;2022-12-26T09:31:13;9.60;99.90
32502;DHT22;18952;52.516;13.460;2022-12-26T09:33:40;9.60;99.90
32502;DHT22;18952;52.516;13.460;2022-12-26T09:36:28;9.60;99.90
32502;DHT22;18952;52.516;13.460;2022-12-26T09:38:55;9.60;99.90
32502;DHT22;18952;52.516;13.460;2022-12-26T09:41:31;9.60;99.90
32502;DHT22;18952;52.516;13.460;2022-12-26T09:44:16;9.60;99.90
32502;DHT22;18952;52.516;13.460;2022-12-26T09:47:11;9.60;99.90
32502;DHT22;18952;52.516;13.460;2022-12-26T09:52:25;9.60;99.90
32502;DHT22;18952;52.516;13.460;2022-12-26T09:54:56;9.60;99.90
32502;DHT22;18952;52.516;13.460;2022-12-26T09:57:40;9.60;99.90
32502;DHT22;18952;52.516;13.460;2022-12-26T10:00:18;9.70;99.90
32502;DHT22;18952;52.516;13.460;2022-12-26T10:02:51;9.70;99.90
32502;DHT22;18952;52.516;13.460;2022-12-26T10:05:27;9.70;99.90
32502;DHT22;18952;52.516;13.460;2022-12-26T10:08:00;9.70;99.90
32502;DHT22;18952;52.516;13.460;2022-12-26T10:11:02;9.70;99.90
32502;DHT22;18952;52.516;13.460;2022-12-26T10:13:41;9.70;99.90
32502;DHT22;18952;52.516;13.460;2022-12-26T10:16:24;9.70;99.90
32502;DHT22;18952;52.516;13.460;2022-12-26T10:19:08;9.80;99.90
32502;DHT22;18952;52.516;13.460;2022-12-26T10:21:48;9.70;99.90
32502;DHT22;18952;52.516;13.460;2022-12-26T10:24:21;9.80;99.90
32502;DHT22;18952;52.516;13.460;2022-12-26T10:26:54;9.80;99.90
32502;DHT22;18952;52.516;13.460;2022-12-26T10:29:45;9.80;99.90
32502;DHT22;18952;52.516;13.460;2022-12-26T10:32:27;9.80;99.90
32502;DHT22;18952;52.516;13.460;2022-12-26T10:34:55;9.80;99.90
32502;DHT22;18952;52.516;13.460;2022-12-26T10:37:46;9.80;99.90
32502;DHT22;18952;52.516;13.460;2022-12-26T10:40:21;9.80;99.90
32502;DHT22;18952;52.516;13.460;2022-12-26T10:42:56;9.80;99.90
32502;DHT22;18952;52.516;13.460;2022-12-26T10:45:42;9.80;99.90
32502;DHT22;18952;52.516;13.460;2022-12-26T10:48:13;9.80;99.90
32502;DHT22;18952;52.516;13.460;2022-12-26T10:50:45;9.80;99.90
32502;DHT22;18952;52.516;13.460;2022-12-26T10:53:14;9.80;99.90
32502;DHT22;18952;52.516;13.460;2022-12-26T10:55:41;9.80;99.90
32502;DHT22;18952;52.516;13.460;2022-12-26T10:58:24;9.80;99.90
32502;DHT22;18952;52.516;13.460;2022-12-26T11:00:53;9.70;99.90
32502;DHT22;18952;52.516;13.460;2022-12-26T11:03:21;9.70;99.90
32502;DHT22;18952;52.516;13.460;2022-12-26T11:05:53;9.70;99.90
32502;DHT22;18952;52.516;13.460;2022-12-26T11:08:45;9.70;99.90
32502;DHT22;18952;52.516;13.460;2022-12-26T11:11:23;9.70;99.90
32502;DHT22;18952;52.516;13.460;2022-12-26T11:13:57;9.70;99.90
32502;DHT22;18952;52.516;13.460;2022-12-26T11:16:34;9.70;99.90
32502;DHT22;18952;52.516;13.460;2022-12-26T11:19:03;9.60;99.90
32502;DHT22;18952;52.516;13.460;2022-12-26T11:21:31;9.60;99.90
32502;DHT22;18952;52.516;13.460;2022-12-26T11:26:34;9.60;99.90
32502;DHT22;18952;52.516;13.460;2022-12-26T11:29:15;9.50;99.90
32502;DHT22;18952;52.516;13.460;2022-12-26T11:32:03;9.50;99.90
32502;DHT22;18952;52.516;13.460;2022-12-26T11:37:00;9.50;99.90
32502;DHT22;18952;52.516;13.460;2022-12-26T11:39:30;9.50;99.90
32502;DHT22;18952;52.516;13.460;2022-12-26T11:41:58;9.50;99.90
32502;DHT22;18952;52.516;13.460;2022-12-26T11:44:33;9.50;99.90
32502;DHT22;18952;52.516;13.460;2022-12-26T11:47:24;9.50;99.90
32502;DHT22;18952;52.516;13.460;2022-12-26T11:50:02;9.40;99.90
32502;DHT22;18952;52.516;13.460;2022-12-26T11:53:02;9.40;99.90
32502;DHT22;18952;52.516;13.460;2022-12-26T11:55:37;9.40;99.90
32502;DHT22;18952;52.516;13.460;2022-12-26T12:00:40;9.50;99.90
32502;DHT22;18952;52.516;13.460;2022-12-26T12:03:42;9.50;99.90
32502;DHT22;18952;52.516;13.460;2022-12-26T12:17:11;9.50;99.90
32502;DHT22;18952;52.516;13.460;2022-12-26T13:01:59;9.50;99.90
32502;DHT22;18952;52.516;13.460;2022-12-26T13:04:42;9.50;99.90
32502;DHT22;18952;52.516;13.460;2022-12-26T13:07:27;9.60;99.90
32502;DHT22;18952;52.516;13.460;2022-12-26T13:10:03;9.60;99.90
32502;DHT22;18952;52.516;13.460;2022-12-26T13:12:36;9.60;99.90
32502;DHT22;18952;52.516;13.460;2022-12-26T13:15:20;9.60;99.90
32502;DHT22;18952;52.516;13.460;2022-12-26T13:17:55;9.60;99.90
32502;DHT22;18952;52.516;13.460;2022-12-26T13:20:31;9.70;99.90
32502;DHT22;18952;52.516;13.460;2022-12-26T13:23:08;9.60;99.90
32502;DHT22;18952;52.516;13.460;2022-12-26T13:25:41;9.70;99.90
32502;DHT22;18952;52.516;13.460;2022-12-26T13:28:20;9.60;99.90
32502;DHT22;18952;52.516;13.460;2022-12-26T13:30:54;9.60;99.90
32502;DHT22;18952;52.516;13.460;2022-12-26T13:33:22;9.50;99.90
32502;DHT22;18952;52.516;13.460;2022-12-26T13:38:23;9.40;99.90
32502;DHT22;18952;52.516;13.460;2022-12-26T13:41:02;9.50;99.90
32502;DHT22;18952;52.516;13.460;2022-12-26T13:43:29;9.50;99.90
32502;DHT22;18952;52.516;13.460;2022-12-26T13:45:56;9.50;99.90
32502;DHT22;18952;52.516;13.460;2022-12-26T13:50:58;9.60;99.90
32502;DHT22;18952;52.516;13.460;2022-12-26T13:55:57;9.50;99.90
32502;DHT22;18952;52.516;13.460;2022-12-26T14:01:36;9.50;99.90
32502;DHT22;18952;52.516;13.460;2022-12-26T14:13:04;9.40;99.90
32502;DHT22;18952;52.516;13.460;2022-12-26T14:20:41;9.40;99.90
32502;DHT22;18952;52.516;13.460;2022-12-26T14:24:01;9.40;99.90
32502;DHT22;18952;52.516;13.460;2022-12-26T14:29:23;9.30;99.90
32502;DHT22;18952;52.516;13.460;2022-12-26T14:34:50;9.30;99.90
32502;DHT22;18952;52.516;13.460;2022-12-26T14:40:33;9.20;99.90
32502;DHT22;18952;52.516;13.460;2022-12-26T14:43:06;9.10;99.90
32502;DHT22;18952;52.516;13.460;2022-12-26T14:50:52;9.00;99.90
32502;DHT22;18952;52.516;13.460;2022-12-26T14:58:50;8.90;99.90
32502;DHT22;18952;52.516;13.460;2022-12-26T15:06:40;9.00;99.90
32502;DHT22;18952;52.516;13.460;2022-12-26T15:09:15;9.10;99.90
32502;DHT22;18952;52.516;13.460;2022-12-26T15:14:55;9.00;99.90
32502;DHT22;18952;52.516;13.460;2022-12-26T15:31:46;9.10;99.90
32502;DHT22;18952;52.516;13.460;2022-12-26T15:37:36;9.00;99.90
32502;DHT22;18952;52.516;13.460;2022-12-26T15:48:09;8.80;99.90
32502;DHT22;18952;52.516;13.460;2022-12-26T15:54:02;8.70;99.90
32502;DHT22;18952;52.516;13.460;2022-12-26T15:56:43;8.70;99.90
32502;DHT22;18952;52.516;13.460;2022-12-26T16:01:51;8.60;99.90
32502;DHT22;18952;52.516;13.460;2022-12-26T16:07:26;8.60;99.90
32502;DHT22;18952;52.516;13.460;2022-12-26T16:09:58;8.60;99.90
32502;DHT22;18952;52.516;13.460;2022-12-26T16:12:28;8.50;99.90
32502;DHT22;18952;52.516;13.460;2022-12-26T16:15:16;8.50;99.90
32502;DHT22;18952;52.516;13.460;2022-12-26T16:17:44;8.50;99.90
32502;DHT22;18952;52.516;13.460;2022-12-26T16:20:30;8.40;99.90
32502;DHT22;18952;52.516;13.460;2022-12-26T16:22:57;8.40;99.90
32502;DHT22;18952;52.516;13.460;2022-12-26T16:25:25;8.40;99.90
32502;DHT22;18952;52.516;13.460;2022-12-26T16:27:54;8.40;99.90
32502;DHT22;18952;52.516;13.460;2022-12-26T16:30:27;8.40;99.90
32502;DHT22;18952;52.516;13.460;2022-12-26T16:32:57;8.40;99.90
32502;DHT22;18952;52.516;13.460;2022-12-26T16:35:28;8.40;99.90
32502;DHT22;18952;52.516;13.460;2022-12-26T16:37:57;8.40;99.90
32502;DHT22;18952;52.516;13.460;2022-12-26T16:42:59;8.50;99.90
32502;DHT22;18952;52.516;13.460;2022-12-26T16:45:27;8.50;99.90
32502;DHT22;18952;52.516;13.460;2022-12-26T16:47:56;8.50;99.90
32502;DHT22;18952;52.516;13.460;2022-12-26T16:50:26;8.50;99.90
32502;DHT22;18952;52.516;13.460;2022-12-26T16:53:02;8.50;99.90
32502;DHT22;18952;52.516;13.460;2022-12-26T16:58:14;8.50;99.90
32502;DHT22;18952;52.516;13.460;2022-12-26T17:01:05;8.50;99.90
32502;DHT22;18952;52.516;13.460;2022-12-26T17:03:46;8.60;99.90
32502;DHT22;18952;52.516;13.460;2022-12-26T17:06:26;8.60;99.90
32502;DHT22;18952;52.516;13.460;2022-12-26T17:08:55;8.60;99.90
32502;DHT22;18952;52.516;13.460;2022-12-26T17:11:28;8.60;99.90
32502;DHT22;18952;52.516;13.460;2022-12-26T17:13:56;8.60;99.90
32502;DHT22;18952;52.516;13.460;2022-12-26T17:16:26;8.70;99.90
32502;DHT22;18952;52.516;13.460;2022-12-26T17:18:55;8.70;99.90
32502;DHT22;18952;52.516;13.460;2022-12-26T17:21:27;8.70;99.90
32502;DHT22;18952;52.516;13.460;2022-12-26T17:24:20;8.70;99.90
32502;DHT22;18952;52.516;13.460;2022-12-26T17:27:06;8.70;99.90
32502;DHT22;18952;52.516;13.460;2022-12-26T17:35:02;8.80;99.90
32502;DHT22;18952;52.516;13.460;2022-12-26T17:37:31;8.80;99.90
32502;DHT22;18952;52.516;13.460;2022-12-26T17:42:44;8.70;99.90
32502;DHT22;18952;52.516;13.460;2022-12-26T17:45:19;8.80;99.90
32502;DHT22;18952;52.516;13.460;2022-12-26T17:47:45;8.70;99.90
32502;DHT22;18952;52.516;13.460;2022-12-26T17:50:12;8.70;99.90
32502;DHT22;18952;52.516;13.460;2022-12-26T17:52:39;8.60;99.90
32502;DHT22;18952;52.516;13.460;2022-12-26T17:55:13;8.60;99.90
32502;DHT22;18952;52.516;13.460;2022-12-26T17:57:40;8.50;99.90
32502;DHT22;18952;52.516;13.460;2022-12-26T18:00:27;8.50;99.90
32502;DHT22;18952;52.516;13.460;2022-12-26T18:02:54;8.50;99.90
32502;DHT22;18952;52.516;13.460;2022-12-26T18:05:21;8.40;99.90
32502;DHT22;18952;52.516;13.460;2022-12-26T18:07:49;8.40;99.90
32502;DHT22;18952;52.516;13.460;2022-12-26T18:10:24;8.40;99.90
32502;DHT22;18952;52.516;13.460;2022-12-26T18:12:51;8.40;99.90
32502;DHT22;18952;52.516;13.460;2022-12-26T18:15:18;8.30;99.90
32502;DHT22;18952;52.516;13.460;2022-12-26T18:17:47;8.20;99.90
32502;DHT22;18952;52.516;13.460;2022-12-26T18:20:16;8.30;99.90
32502;DHT22;18952;52.516;13.460;2022-12-26T18:22:43;8.30;99.90
32502;DHT22;18952;52.516;13.460;2022-12-26T18:25:14;8.20;99.90
32502;DHT22;18952;52.516;13.460;2022-12-26T18:27:42;8.20;99.90
32502;DHT22;18952;52.516;13.460;2022-12-26T18:30:21;8.20;99.90
32502;DHT22;18952;52.516;13.460;2022-12-26T18:32:50;8.20;99.90
32502;DHT22;18952;52.516;13.460;2022-12-26T18:35:17;8.10;99.90
32502;DHT22;18952;52.516;13.460;2022-12-26T18:37:50;8.10;99.90
32502;DHT22;18952;52.516;13.460;2022-12-26T18:40:32;8.10;99.90
32502;DHT22;18952;52.516;13.460;2022-12-26T18:42:59;8.00;99.90
32502;DHT22;18952;52.516;13.460;2022-12-26T18:45:26;8.00;99.90
32502;DHT22;18952;52.516;13.460;2022-12-26T18:47:53;8.00;99.90
32502;DHT22;18952;52.516;13.460;2022-12-26T18:50:20;8.00;99.90
32502;DHT22;18952;52.516;13.460;2022-12-26T18:52:47;7.90;99.90
32502;DHT22;18952;52.516;13.460;2022-12-26T18:55:23;7.90;99.90
32502;DHT22;18952;52.516;13.460;2022-12-26T18:57:50;7.80;99.90
32502;DHT22;18952;52.516;13.460;2022-12-26T19:00:19;7.90;99.90
32502;DHT22;18952;52.516;13.460;2022-12-26T19:02:46;7.80;99.90
32502;DHT22;18952;52.516;13.460;2022-12-26T19:05:26;7.70;99.90
32502;DHT22;18952;52.516;13.460;2022-12-26T19:07:54;7.60;99.90
32502;DHT22;18952;52.516;13.460;2022-12-26T19:10:23;7.60;99.90
32502;DHT22;18952;52.516;13.460;2022-12-26T19:12:51;7.60;99.90
32502;DHT22;18952;52.516;13.460;2022-12-26T19:15:18;7.50;99.90
32502;DHT22;18952;52.516;13.460;2022-12-26T19:17:45;7.50;99.90
32502;DHT22;18952;52.516;13.460;2022-12-26T19:20:18;7.50;99.90